Brunswick, GA (31520)

11:04 PM EDT on August 22, 2014 (GMT -0400)
Dixville | Change Station
CLOSE
Current Station
Personal Weather Station
Location: Brunswick, GA
Elevation: 39 ft
Nearby Weather Stations
Active Advisory: Heat Advisory

Elev 39 ft 31.14 °N, 81.49 °W | Updated 5 seconds ago

Clear
Clear
85.0 °F
Feels Like 95 °F
N
1.0
Wind Variable Wind from SSW
Gusts 2.0 mph

Today
High -- | Low -- °F
--% Chance of Precip.
Yesterday
High -- | Low -- °F
Precip. -- in
6:56 AM 8:01 PM
Waning Crescent, 5% visible
Pressure 29.99 in
Visibility 10.0 miles
Clouds Clear
Heat Index 95 °F
Dew Point 76 °F
Humidity 75%
Rainfall 0.00 in
Snow Depth Not available.
UV 0.0 out of 12
Pollen 7.90 out of 12
Air Quality Not available.
Flu Activity Not available.
METAR KBQK 230255Z AUTO 20004KT 10SM CLR 30/22 A2999 RMK AO1

More Conditions Fewer Conditions

Pressure 29.99 in
Visibility 10.0 miles
Clouds Clear
Heat Index 95 °F
Dew Point 76 °F
Humidity 75%
Rainfall 0.00 in
Snow Depth Not available.
UV 0.0 out of 12
Pollen 7.90 out of 12
Air Quality Not available.
Flu Activity Not available.
METAR KBQK 230255Z AUTO 20004KT 10SM CLR 30/22 A2999 RMK AO1

More Conditions Fewer Conditions

10-Day Weather Forecast

Almanac

Astronomy

Aug. 22, 2014 Rise Set
Actual Time 6:56 AM EDT 8:01 PM EDT
Civil Twilight 6:30 AM EDT 8:26 PM EDT
Nautical Twilight 6:01 AM EDT 8:55 PM EDT
Astronomical Twilight 5:30 AM EDT 9:26 PM EDT
Moon 4:22 AM EDT (8/22) 6:05 PM EDT (8/22)
Length of Visible Light 13h 55m
Length of Day
13h 05m
Tomorrow will be 1m 44s shorter.
Waning Crescent, 5% of the Moon is Illuminated
Today
Waning Crescent
Aug 25
New
Sep 2
First Quarter
Sep 8
Full
Sep 15
Last Quarter

Today's Extremes

State Highs State Lows

Community

WunderPhotos

Upload Photos

1,746,348 photos uploaded!

WunderBlogs® & News

Nearby

Snow Depth

Station Depth Elevation
No new snow has been reported.

Earthquake Activity

City Distance Mag. Time & Date
No recent earthquake activity has been reported nearby.
Minimum magnitude displayed is 2.5.

Coastal Water Temperatures

Place Temperature
Fernandina Beach, FL 84.0 °F
Mayport (Bar Pilots Dock), FL 82.9 °F

Nearby Weather Stations